Flasher, North Dakota
Current Conditions -  °F | °C
As of 6:35 AM on Wednesday 22 Oct 2014 (Local Time) from KY19 Reporting Station
Broken Clouds Broken Clouds  
Wind Chill: 54°   Ceiling: 11000
Heat Index: 54°   Visibility: 10mi
Dew Point: 46°   Wind: 21mph
Humidity: 77%   Direction: 280°W
Pressure: 29.8"   Gusts: 29mph
Location:  46.46°N, 101.23°W
Report Text: KY19 221235Z AUTO 28018G25KT 10SM BKN110 12/08 A2980 RMK AO2
Loading
Personal Weather Stations






























Interactive Weather Map
Tropical Storm Tracking
New forecast layout! Learn more

10-Day Weather Forecast

Advertisements
Track Severe Weather on mobile